Time;durP1;ratioP1;P1;durP2;ratioP2;P2;SDS_P1;SDS_P2;PMS_P1;PMS_P2;Temp;Humidity;BMP_temperature;BMP_pressure;BME280_temperature;BME280_humidity;BME280_pressure;Samples;Min_cycle;Max_cycle;Signal;HPM_P1;HPM_P2
2024/04/12 00:00:47;;;;;;;5.80;2.83;;;;;;;;;;5470671;26;20029;-78
2024/04/12 00:03:17;;;;;;;6.47;2.60;;;;;;;;;;5470899;26;20010;-78
2024/04/12 00:05:47;;;;;;;6.75;2.58;;;;;;;;;;5470877;26;20006;-79
2024/04/12 00:08:15;;;;;;;4.82;2.88;;;;;;;;;;5461160;26;20046;-79
2024/04/12 00:10:43;;;;;;;6.95;2.50;;;;;;;;;;5441484;26;20470;-79
2024/04/12 00:13:10;;;;;;;5.30;2.40;;;;;;;;;;5476093;26;20013;-79
2024/04/12 00:15:38;;;;;;;9.55;3.08;;;;;;;;;;5432328;26;20336;-78
2024/04/12 00:18:06;;;;;;;7.90;2.65;;;;;;;;;;5426806;26;20531;-78
2024/04/12 00:20:32;;;;;;;5.00;2.53;;;;;;;;;;5454904;26;20333;-78
2024/04/12 00:23:02;;;;;;;5.22;2.53;;;;;;;;;;5467220;26;20002;-78
2024/04/12 00:25:29;;;;;;;3.67;2.78;;;;;;;;;;5440904;26;20473;-79
2024/04/12 00:27:56;;;;;;;4.85;2.90;;;;;;;;;;5443279;26;20005;-78
2024/04/12 00:30:38;;;;;;;5.28;3.03;;;;;;;;;;5465616;26;20001;-79
2024/04/12 00:33:11;;;;;;;3.75;2.90;;;;;;;;;;5437978;26;20010;-77
2024/04/12 00:35:39;;;;;;;6.90;2.63;;;;;;;;;;5463978;26;20367;-77
2024/04/12 00:38:11;;;;;;;5.95;3.08;;;;;;;;;;5443854;26;20006;-77
2024/04/12 00:40:45;;;;;;;4.22;2.65;;;;;;;;;;5446671;26;20009;-77
2024/04/12 00:43:16;;;;;;;3.38;2.58;;;;;;;;;;5460703;26;20013;-77
2024/04/12 00:45:46;;;;;;;6.13;2.60;;;;;;;;;;5477962;26;20074;-77
2024/04/12 00:48:14;;;;;;;5.20;2.92;;;;;;;;;;5470105;26;20006;-77
2024/04/12 00:50:46;;;;;;;4.93;2.72;;;;;;;;;;5477586;26;20009;-75
2024/04/12 00:53:13;;;;;;;3.42;2.80;;;;;;;;;;5463940;26;20356;-76
2024/04/12 00:55:40;;;;;;;3.70;2.50;;;;;;;;;;5447562;26;20006;-76
2024/04/12 00:58:10;;;;;;;3.63;2.63;;;;;;;;;;5425942;26;20407;-76
2024/04/12 01:00:37;;;;;;;4.28;2.58;;;;;;;;;;5474398;26;20020;-77
2024/04/12 01:03:05;;;;;;;2.83;2.25;;;;;;;;;;5430680;26;20006;-77
2024/04/12 01:05:32;;;;;;;5.03;2.85;;;;;;;;;;5426903;26;20003;-78
2024/04/12 01:08:00;;;;;;;5.10;2.53;;;;;;;;;;5473474;26;20006;-78
2024/04/12 01:10:30;;;;;;;6.32;2.75;;;;;;;;;;5445757;26;20001;-78
2024/04/12 01:12:58;;;;;;;6.15;3.03;;;;;;;;;;5416425;26;20020;-77
2024/04/12 01:15:37;;;;;;;2.90;2.60;;;;;;;;;;5446440;26;20014;-76
2024/04/12 01:18:10;;;;;;;7.40;2.78;;;;;;;;;;5457156;26;20002;-77
2024/04/12 01:20:39;;;;;;;6.72;2.60;;;;;;;;;;5424462;26;20025;-77
2024/04/12 01:23:06;;;;;;;5.00;2.78;;;;;;;;;;5423247;26;20026;-77
2024/04/12 01:25:33;;;;;;;5.28;2.72;;;;;;;;;;5452696;26;20509;-77
2024/04/12 01:28:04;;;;;;;7.65;2.58;;;;;;;;;;5434144;26;20039;-77
2024/04/12 01:30:31;;;;;;;2.97;2.58;;;;;;;;;;5463884;26;20001;-78
2024/04/12 01:32:58;;;;;;;6.20;3.00;;;;;;;;;;5458092;26;20496;-78
2024/04/12 01:35:26;;;;;;;4.80;3.00;;;;;;;;;;5434193;26;20006;-78
2024/04/12 01:37:53;;;;;;;3.95;3.10;;;;;;;;;;5440369;26;20402;-78
2024/04/12 01:40:22;;;;;;;4.65;2.95;;;;;;;;;;5445926;26;20001;-79
2024/04/12 01:42:50;;;;;;;4.85;3.00;;;;;;;;;;5437672;26;20047;-78
2024/04/12 01:45:17;;;;;;;6.68;3.50;;;;;;;;;;5515673;26;20402;-79
2024/04/12 01:47:45;;;;;;;4.18;3.10;;;;;;;;;;5512432;26;19997;-78
2024/04/12 01:50:13;;;;;;;6.03;3.20;;;;;;;;;;5432044;26;20583;-78
2024/04/12 01:52:57;;;;;;;5.15;2.75;;;;;;;;;;5477536;26;20348;-79
2024/04/12 01:55:24;;;;;;;4.70;3.33;;;;;;;;;;5438111;26;20016;-79
2024/04/12 01:57:52;;;;;;;7.28;4.05;;;;;;;;;;5431231;26;20028;-79
2024/04/12 02:00:26;;;;;;;4.65;2.55;;;;;;;;;;5470022;26;20014;-80
2024/04/12 02:02:59;;;;;;;5.47;3.08;;;;;;;;;;5477852;26;20255;-78
2024/04/12 02:05:33;;;;;;;4.13;3.08;;;;;;;;;;5472192;26;20006;-78
2024/04/12 02:08:08;;;;;;;7.13;3.10;;;;;;;;;;5436742;26;20013;-79
2024/04/12 02:10:41;;;;;;;5.30;3.13;;;;;;;;;;5427061;26;20009;-78
2024/04/12 02:13:10;;;;;;;5.78;3.17;;;;;;;;;;5440144;26;19998;-79
2024/04/12 02:15:40;;;;;;;8.13;3.20;;;;;;;;;;5428450;26;19998;-79
2024/04/12 02:18:08;;;;;;;6.03;3.05;;;;;;;;;;5446191;26;20009;-79
2024/04/12 02:20:35;;;;;;;4.13;3.10;;;;;;;;;;5421627;26;20462;-80
2024/04/12 02:23:05;;;;;;;5.45;3.10;;;;;;;;;;5416018;26;21463;-80
2024/04/12 02:25:35;;;;;;;7.22;2.85;;;;;;;;;;5429635;26;20464;-81
2024/04/12 02:28:12;;;;;;;8.75;3.53;;;;;;;;;;5428579;26;20355;-80
2024/04/12 02:30:41;;;;;;;5.25;3.22;;;;;;;;;;5416201;26;20010;-81
2024/04/12 02:33:09;;;;;;;4.88;3.17;;;;;;;;;;5426567;26;19998;-79
2024/04/12 02:35:41;;;;;;;8.50;3.63;;;;;;;;;;5453341;26;20413;-76
2024/04/12 02:38:14;;;;;;;6.28;2.90;;;;;;;;;;5446776;26;20038;-79
2024/04/12 02:40:45;;;;;;;4.80;2.90;;;;;;;;;;5434461;26;20082;-79
2024/04/12 02:43:15;;;;;;;5.93;3.25;;;;;;;;;;5463513;26;20002;-79
2024/04/12 02:45:48;;;;;;;6.20;3.03;;;;;;;;;;5463417;26;20009;-79
2024/04/12 02:48:19;;;;;;;3.72;2.83;;;;;;;;;;5461045;26;20006;-78
2024/04/12 02:51:05;;;;;;;6.85;2.88;;;;;;;;;;5463221;26;20002;-79
2024/04/12 02:53:36;;;;;;;5.00;3.20;;;;;;;;;;5430511;26;20002;-79
2024/04/12 02:56:08;;;;;;;4.10;2.97;;;;;;;;;;5462873;26;19999;-78
2024/04/12 02:58:39;;;;;;;4.57;2.63;;;;;;;;;;5434661;26;20013;-78
2024/04/12 03:01:07;;;;;;;5.70;3.08;;;;;;;;;;5428223;26;20002;-78
2024/04/12 03:03:35;;;;;;;7.45;3.67;;;;;;;;;;5457962;26;20002;-78
2024/04/12 03:06:03;;;;;;;7.63;3.15;;;;;;;;;;5429661;26;19994;-76
2024/04/12 03:08:32;;;;;;;5.93;3.53;;;;;;;;;;5452611;26;20017;-77
2024/04/12 03:11:21;;;;;;;6.13;3.15;;;;;;;;;;5452981;26;20013;-77
2024/04/12 03:13:52;;;;;;;6.40;2.90;;;;;;;;;;5426312;26;20488;-77
2024/04/12 03:16:19;;;;;;;4.65;3.10;;;;;;;;;;5421890;26;20834;-80
2024/04/12 03:18:48;;;;;;;5.60;3.08;;;;;;;;;;5425953;26;20018;-81
2024/04/12 03:21:20;;;;;;;8.18;3.30;;;;;;;;;;5455859;26;20006;-81
2024/04/12 03:23:48;;;;;;;4.50;2.70;;;;;;;;;;5418779;26;20006;-81
2024/04/12 03:26:15;;;;;;;3.40;2.70;;;;;;;;;;5454176;26;20048;-81
2024/04/12 03:28:44;;;;;;;6.13;3.55;;;;;;;;;;5453715;26;20023;-80
2024/04/12 03:31:11;;;;;;;5.15;3.47;;;;;;;;;;5461000;26;20010;-81
2024/04/12 03:33:45;;;;;;;6.15;3.58;;;;;;;;;;5423248;26;20009;-82
2024/04/12 03:36:26;;;;;;;5.63;3.50;;;;;;;;;;5429379;26;20013;-80
2024/04/12 03:41:39;;;;;;;4.50;2.85;;;;;;;;;;5463299;26;20002;-79
2024/04/12 03:44:08;;;;;;;6.13;3.05;;;;;;;;;;5466635;26;19998;-80
2024/04/12 03:46:35;;;;;;;5.45;3.70;;;;;;;;;;5462656;26;20107;-81
2024/04/12 03:49:02;;;;;;;7.18;3.75;;;;;;;;;;5457414;26;20002;-79
2024/04/12 03:51:29;;;;;;;7.18;3.10;;;;;;;;;;5453865;26;20017;-79
2024/04/12 03:54:10;;;;;;;8.10;3.67;;;;;;;;;;5425641;26;20344;-79
2024/04/12 03:56:38;;;;;;;6.93;3.17;;;;;;;;;;5412776;26;20460;-79
2024/04/12 03:59:04;;;;;;;5.72;3.10;;;;;;;;;;5455943;26;20012;-78
2024/04/12 04:01:31;;;;;;;4.40;2.83;;;;;;;;;;5453074;26;19998;-80
2024/04/12 04:04:00;;;;;;;6.00;3.10;;;;;;;;;;5450428;26;19995;-80
2024/04/12 04:06:35;;;;;;;8.50;3.20;;;;;;;;;;5423773;26;20046;-79
2024/04/12 04:09:05;;;;;;;6.47;3.28;;;;;;;;;;5445524;26;20009;-79
2024/04/12 04:11:32;;;;;;;5.68;3.25;;;;;;;;;;5420156;26;20003;-78
2024/04/12 04:14:08;;;;;;;7.88;3.42;;;;;;;;;;5467152;26;19997;-78
2024/04/12 04:16:38;;;;;;;5.80;3.03;;;;;;;;;;5469019;26;19998;-79
2024/04/12 04:19:06;;;;;;;7.20;3.13;;;;;;;;;;5474874;26;20018;-79
2024/04/12 04:21:33;;;;;;;4.63;3.17;;;;;;;;;;5469628;26;20005;-79
2024/04/12 04:24:08;;;;;;;5.32;3.22;;;;;;;;;;5460148;26;20006;-79
2024/04/12 04:26:36;;;;;;;5.60;2.97;;;;;;;;;;5456810;26;20008;-80
2024/04/12 04:29:09;;;;;;;5.90;3.30;;;;;;;;;;5454614;26;19998;-79
2024/04/12 04:31:46;;;;;;;4.70;3.30;;;;;;;;;;5448657;26;19994;-80
2024/04/12 04:34:13;;;;;;;4.28;2.90;;;;;;;;;;5459893;26;20694;-80
2024/04/12 04:36:40;;;;;;;4.40;3.20;;;;;;;;;;5457802;26;20007;-79
2024/04/12 04:39:07;;;;;;;5.25;3.55;;;;;;;;;;5446427;26;20002;-78
2024/04/12 04:41:34;;;;;;;4.88;3.15;;;;;;;;;;5456867;26;20014;-78
2024/04/12 04:44:01;;;;;;;7.13;4.57;;;;;;;;;;5468268;26;20002;-78
2024/04/12 04:46:27;;;;;;;6.22;3.33;;;;;;;;;;5447652;26;20001;-79
2024/04/12 04:48:54;;;;;;;6.80;3.40;;;;;;;;;;5486185;26;20005;-79
2024/04/12 04:51:25;;;;;;;4.03;3.22;;;;;;;;;;5443307;26;19998;-78
2024/04/12 04:53:52;;;;;;;7.65;4.07;;;;;;;;;;5421135;26;20019;-78
2024/04/12 04:56:24;;;;;;;6.07;3.53;;;;;;;;;;5448802;26;20392;-78
2024/04/12 04:58:54;;;;;;;6.20;3.13;;;;;;;;;;5445921;26;20006;-78
2024/04/12 05:01:24;;;;;;;4.90;3.45;;;;;;;;;;5450032;26;20460;-79
2024/04/12 05:03:52;;;;;;;6.22;3.85;;;;;;;;;;5455119;26;20006;-79
2024/04/12 05:06:24;;;;;;;6.05;3.10;;;;;;;;;;5464593;26;20005;-78
2024/04/12 05:08:52;;;;;;;5.15;3.05;;;;;;;;;;5473369;26;20073;-78
2024/04/12 05:11:19;;;;;;;5.78;4.05;;;;;;;;;;5440267;26;20566;-77
2024/04/12 05:13:49;;;;;;;8.27;4.20;;;;;;;;;;5459613;26;20069;-79
2024/04/12 05:16:19;;;;;;;11.35;4.85;;;;;;;;;;5443709;26;20070;-78
2024/04/12 05:18:48;;;;;;;11.15;4.00;;;;;;;;;;5436679;26;20002;-76
2024/04/12 05:21:15;;;;;;;8.15;3.78;;;;;;;;;;5448980;26;20034;-77
2024/04/12 05:23:42;;;;;;;9.15;4.20;;;;;;;;;;5444967;26;19997;-77
2024/04/12 05:26:12;;;;;;;8.73;3.90;;;;;;;;;;5462113;26;20028;-76
2024/04/12 05:28:38;;;;;;;6.20;3.55;;;;;;;;;;5482785;26;20010;-83
2024/04/12 05:31:11;;;;;;;6.75;3.30;;;;;;;;;;5457145;26;20010;-81
2024/04/12 05:33:38;;;;;;;;;;;;;;;;;;5456076;26;20009;-83
2024/04/12 05:36:09;;;;;;;6.07;3.53;;;;;;;;;;5493665;26;19948;-80
2024/04/12 05:38:37;;;;;;;8.85;3.70;;;;;;;;;;5463559;26;19998;-77
2024/04/12 05:41:04;;;;;;;7.13;3.15;;;;;;;;;;5470022;26;20463;-77
2024/04/12 05:43:32;;;;;;;6.38;3.30;;;;;;;;;;5463622;26;20002;-78
2024/04/12 05:46:01;;;;;;;6.60;3.67;;;;;;;;;;5435020;26;20001;-78
2024/04/12 05:48:28;;;;;;;5.90;3.60;;;;;;;;;;5440471;26;20014;-77
2024/04/12 05:50:55;;;;;;;6.35;3.80;;;;;;;;;;5449602;26;19999;-75
2024/04/12 05:53:30;;;;;;;5.32;3.85;;;;;;;;;;5473663;26;20024;-77
2024/04/12 05:58:45;;;;;;;7.43;3.83;;;;;;;;;;5495863;26;20006;-74
2024/04/12 06:01:11;;;;;;;7.10;3.83;;;;;;;;;;5463268;26;20056;-74
2024/04/12 06:03:42;;;;;;;5.15;4.63;;;;;;;;;;5471487;26;20347;-74
2024/04/12 06:06:14;;;;;;;5.97;4.50;;;;;;;;;;5453340;26;20010;-74
2024/04/12 06:08:41;;;;;;;6.50;3.53;;;;;;;;;;5471769;26;20001;-74
2024/04/12 06:11:09;;;;;;;6.40;4.15;;;;;;;;;;5453736;26;20612;-73
2024/04/12 06:13:36;;;;;;;4.22;3.38;;;;;;;;;;5485555;26;19998;-74
2024/04/12 06:16:03;;;;;;;7.40;4.18;;;;;;;;;;5441182;26;20002;-74
2024/04/12 06:18:30;;;;;;;5.85;3.50;;;;;;;;;;5469328;26;20017;-74
2024/04/12 06:20:57;;;;;;;6.32;3.28;;;;;;;;;;5485506;26;20021;-74
2024/04/12 06:23:24;;;;;;;5.93;3.80;;;;;;;;;;5480282;26;20020;-74
2024/04/12 06:25:58;;;;;;;5.40;4.00;;;;;;;;;;5456139;26;20523;-76
2024/04/12 06:28:26;;;;;;;7.63;3.63;;;;;;;;;;5460297;26;20031;-78
2024/04/12 06:30:56;;;;;;;6.38;3.53;;;;;;;;;;5483393;26;20459;-78
2024/04/12 06:33:23;;;;;;;5.95;4.25;;;;;;;;;;5444336;26;19998;-78
2024/04/12 06:35:52;;;;;;;5.00;4.00;;;;;;;;;;5452437;26;20001;-79
2024/04/12 06:38:22;;;;;;;7.85;3.78;;;;;;;;;;5452501;26;20001;-80
2024/04/12 06:41:15;;;;;;;6.35;3.83;;;;;;;;;;5519271;26;20013;-77
2024/04/12 06:43:42;;;;;;;8.48;4.18;;;;;;;;;;5503694;26;20004;-79
2024/04/12 06:46:11;;;;;;;7.38;3.72;;;;;;;;;;5472182;26;20019;-78
2024/04/12 06:48:41;;;;;;;9.50;4.07;;;;;;;;;;5443822;26;19998;-79
2024/04/12 06:51:12;;;;;;;6.95;4.35;;;;;;;;;;5450005;26;20445;-76
2024/04/12 06:53:44;;;;;;;6.85;4.47;;;;;;;;;;5464958;26;20398;-76
2024/04/12 06:56:15;;;;;;;11.57;4.80;;;;;;;;;;5434939;26;20013;-76
2024/04/12 06:58:46;;;;;;;4.72;4.10;;;;;;;;;;5459056;26;20006;-76
2024/04/12 07:01:13;;;;;;;8.20;4.85;;;;;;;;;;5489031;26;20367;-78
2024/04/12 07:03:46;;;;;;;6.78;4.10;;;;;;;;;;5462532;25;20013;-76
2024/04/12 07:06:18;;;;;;;10.20;4.55;;;;;;;;;;5522971;26;20778;-78
2024/04/12 07:08:50;;;;;;;10.32;4.78;;;;;;;;;;5481239;26;20013;-78
2024/04/12 07:11:24;;;;;;;10.80;4.70;;;;;;;;;;5493104;26;20005;-77
2024/04/12 07:13:51;;;;;;;8.63;4.53;;;;;;;;;;5429023;26;19999;-78
2024/04/12 07:16:18;;;;;;;11.55;4.68;;;;;;;;;;5485860;26;20606;-77
2024/04/12 07:18:46;;;;;;;5.60;4.32;;;;;;;;;;5453396;26;20006;-76
2024/04/12 07:21:15;;;;;;;7.88;4.43;;;;;;;;;;5451611;26;20010;-75
2024/04/12 07:23:46;;;;;;;10.95;3.88;;;;;;;;;;5497524;26;20002;-76
2024/04/12 07:26:27;;;;;;;4.32;3.65;;;;;;;;;;5476692;26;20009;-76
2024/04/12 07:28:58;;;;;;;9.13;4.47;;;;;;;;;;5492199;26;19997;-77
2024/04/12 07:31:26;;;;;;;8.43;4.10;;;;;;;;;;5512803;26;20033;-77
2024/04/12 07:33:59;;;;;;;7.38;3.92;;;;;;;;;;5461218;26;20009;-76
2024/04/12 07:36:30;;;;;;;;;;;;;;;;;;5456089;26;20005;-76
2024/04/12 07:39:03;;;;;;;8.52;3.88;;;;;;;;;;5490442;26;20331;-76
2024/04/12 07:41:31;;;;;;;;;;;;;;;;;;5441237;26;20002;-77
2024/04/12 07:43:58;;;;;;;5.53;4.07;;;;;;;;;;5485868;26;19923;-78
2024/04/12 07:46:33;;;;;;;8.07;4.55;;;;;;;;;;5485339;26;19994;-79
2024/04/12 07:49:01;;;;;;;7.47;4.43;;;;;;;;;;5462449;26;20084;-79
2024/04/12 07:51:31;;;;;;;10.95;4.32;;;;;;;;;;5450838;26;20016;-76
2024/04/12 07:54:03;;;;;;;9.88;4.43;;;;;;;;;;5492852;26;20027;-76
2024/04/12 07:56:37;;;;;;;8.57;4.13;;;;;;;;;;5455291;26;20456;-77
2024/04/12 07:59:16;;;;;;;6.53;4.35;;;;;;;;;;5458102;26;20017;-74
2024/04/12 08:01:45;;;;;;;10.10;4.05;;;;;;;;;;5429595;26;20049;-75
2024/04/12 08:05:14;;;;;;;7.50;4.72;;;;;;;;;;5440612;26;20520;-74
2024/04/12 08:07:06;;;;;;;8.68;4.55;;;;;;;;;;5452734;26;20021;-74
2024/04/12 08:09:42;;;;;;;7.10;4.63;;;;;;;;;;5443003;26;20464;-75
2024/04/12 08:12:17;;;;;;;7.65;4.45;;;;;;;;;;5434809;26;20033;-74
2024/04/12 08:14:52;;;;;;;9.18;5.63;;;;;;;;;;5468879;20;20044;-74
2024/04/12 08:17:24;;;;;;;6.03;4.03;;;;;;;;;;5310907;26;20048;-75
2024/04/12 08:20:12;;;;;;;8.55;4.38;;;;;;;;;;5322716;26;20021;-75
2024/04/12 08:22:42;;;;;;;7.07;4.32;;;;;;;;;;5341034;26;20016;-76
2024/04/12 08:25:09;;;;;;;7.40;4.00;;;;;;;;;;5333279;26;20038;-75
2024/04/12 08:27:36;;;;;;;5.15;3.53;;;;;;;;;;5334935;26;20004;-75
2024/04/12 08:30:13;;;;;;;8.70;3.60;;;;;;;;;;5310148;26;20017;-76
2024/04/12 08:32:48;;;;;;;6.10;3.65;;;;;;;;;;5303175;26;20017;-75
2024/04/12 08:35:24;;;;;;;8.88;3.85;;;;;;;;;;5331486;26;20021;-76
2024/04/12 08:37:52;;;;;;;7.43;4.00;;;;;;;;;;5311208;26;20002;-76
2024/04/12 08:40:24;;;;;;;8.02;4.63;;;;;;;;;;5326472;26;20013;-77
2024/04/12 08:42:54;;;;;;;6.85;4.40;;;;;;;;;;5312048;26;20471;-77
2024/04/12 08:45:21;;;;;;;10.65;4.43;;;;;;;;;;5295375;26;20078;-76
2024/04/12 08:47:51;;;;;;;7.90;4.07;;;;;;;;;;5320617;26;20014;-76
2024/04/12 08:50:23;;;;;;;7.80;4.18;;;;;;;;;;5291038;26;20017;-76
2024/04/12 08:52:54;;;;;;;8.15;3.92;;;;;;;;;;5301805;26;20029;-76
2024/04/12 08:55:23;;;;;;;7.22;4.13;;;;;;;;;;5331097;26;20005;-77
2024/04/12 08:58:00;;;;;;;7.45;4.43;;;;;;;;;;5333655;26;20010;-75
2024/04/12 09:00:34;;;;;;;9.98;4.78;;;;;;;;;;5307566;26;20024;-76
2024/04/12 09:03:02;;;;;;;7.82;4.63;;;;;;;;;;5309057;26;20363;-76
2024/04/12 09:05:34;;;;;;;8.30;4.13;;;;;;;;;;5317827;26;20065;-75
2024/04/12 09:08:03;;;;;;;10.35;4.40;;;;;;;;;;5318567;26;20025;-76
2024/04/12 09:10:35;;;;;;;7.55;4.50;;;;;;;;;;5315089;26;20059;-76
2024/04/12 09:13:02;;;;;;;12.70;4.47;;;;;;;;;;5321351;26;19997;-76
2024/04/12 09:15:32;;;;;;;8.95;4.78;;;;;;;;;;5316097;26;20119;-76
2024/04/12 09:18:00;;;;;;;7.47;5.03;;;;;;;;;;5314007;26;20403;-77
2024/04/12 09:20:31;;;;;;;7.85;4.70;;;;;;;;;;5329152;26;20351;-77
2024/04/12 09:23:13;;;;;;;10.02;4.72;;;;;;;;;;5306328;26;20005;-76
2024/04/12 09:25:46;;;;;;;10.27;4.80;;;;;;;;;;5309756;26;20001;-77
2024/04/12 09:28:13;;;;;;;8.38;4.63;;;;;;;;;;5336595;26;20017;-77
2024/04/12 09:33:27;;;;;;;5.97;4.28;;;;;;;;;;5329127;26;20028;-77
2024/04/12 09:36:05;;;;;;;10.15;5.90;;;;;;;;;;5295833;26;20021;-77
2024/04/12 09:38:39;;;;;;;6.40;4.80;;;;;;;;;;5308144;26;20012;-75
2024/04/12 09:41:28;;;;;;;10.52;4.95;;;;;;;;;;5321686;26;20005;-74
2024/04/12 09:44:01;;;;;;;9.93;5.32;;;;;;;;;;5319863;26;20008;-74
2024/04/12 10:37:28;;;;;;;9.98;4.75;;;;;;;;;;5328852;26;20009;-76
2024/04/12 10:39:58;;;;;;;13.18;5.25;;;;;;;;;;5309558;26;20524;-74
2024/04/12 10:42:25;;;;;;;10.68;4.55;;;;;;;;;;5326310;26;20018;-75
2024/04/12 10:44:56;;;;;;;8.50;4.43;;;;;;;;;;5299109;26;20001;-75
2024/04/12 10:47:23;;;;;;;9.40;4.72;;;;;;;;;;5296310;26;20009;-75
2024/04/12 10:49:51;;;;;;;10.93;4.97;;;;;;;;;;5338433;26;20016;-75
2024/04/12 10:52:28;;;;;;;10.15;5.03;;;;;;;;;;5340011;26;19996;-75
2024/04/12 10:54:55;;;;;;;9.23;4.93;;;;;;;;;;5313385;26;20388;-75
2024/04/12 10:57:27;;;;;;;7.22;5.05;;;;;;;;;;5333842;26;20005;-76
2024/04/12 10:59:54;;;;;;;15.48;6.68;;;;;;;;;;5308405;26;20099;-75
2024/04/12 11:02:22;;;;;;;9.20;4.32;;;;;;;;;;5320145;26;20372;-75
2024/04/12 11:07:34;;;;;;;8.95;4.57;;;;;;;;;;5327807;26;20825;-76
2024/04/12 11:10:04;;;;;;;6.85;4.05;;;;;;;;;;5335890;26;20009;-75
2024/04/12 11:12:40;;;;;;;6.72;4.05;;;;;;;;;;5314841;26;20020;-75
2024/04/12 11:31:07;;;;;;;7.45;4.80;;;;;;;;;;5326074;26;20351;-76
2024/04/12 11:32:12;;;;;;;11.25;5.22;;;;;;;;;;5306724;26;20161;-75
2024/04/12 11:34:41;;;;;;;6.38;4.32;;;;;;;;;;5311076;26;20067;-75
2024/04/12 11:37:13;;;;;;;7.75;4.85;;;;;;;;;;5313530;26;20008;-76
2024/04/12 11:39:41;;;;;;;9.52;5.28;;;;;;;;;;5273631;27;20005;-75
2024/04/12 11:42:11;;;;;;;10.30;4.85;;;;;;;;;;5331789;26;20557;-75
2024/04/12 11:44:38;;;;;;;8.57;4.80;;;;;;;;;;5292124;26;20045;-75
2024/04/12 11:47:05;;;;;;;7.80;4.97;;;;;;;;;;5335275;26;20009;-75
2024/04/12 11:49:45;;;;;;;6.68;4.70;;;;;;;;;;5315651;26;20033;-75
2024/04/12 11:52:18;;;;;;;7.93;5.45;;;;;;;;;;5332291;26;20038;-75
2024/04/12 11:54:53;;;;;;;10.40;5.43;;;;;;;;;;5311381;26;20009;-75
2024/04/12 11:57:22;;;;;;;8.40;5.25;;;;;;;;;;5335611;26;20421;-75
2024/04/12 11:59:58;;;;;;;11.05;4.82;;;;;;;;;;5333744;26;20005;-74
2024/04/12 12:02:27;;;;;;;8.65;5.55;;;;;;;;;;5329298;26;20018;-75
2024/04/12 12:04:56;;;;;;;10.07;4.63;;;;;;;;;;5325279;26;20033;-75
2024/04/12 12:07:23;;;;;;;12.70;6.35;;;;;;;;;;5329600;26;20016;-77
2024/04/12 12:09:50;;;;;;;11.13;4.97;;;;;;;;;;5333435;26;20001;-76
2024/04/12 12:12:21;;;;;;;9.65;5.63;;;;;;;;;;5318231;26;20343;-77
2024/04/12 12:14:51;;;;;;;6.78;4.88;;;;;;;;;;5322069;26;20017;-77
2024/04/12 12:17:19;;;;;;;7.57;4.95;;;;;;;;;;5324160;26;20416;-77
2024/04/12 12:19:47;;;;;;;9.88;5.18;;;;;;;;;;5326054;26;20008;-76
2024/04/12 12:22:14;;;;;;;13.98;5.07;;;;;;;;;;5312094;26;20604;-80
2024/04/12 12:24:41;;;;;;;7.82;5.72;;;;;;;;;;5283880;26;20013;-78
2024/04/12 12:27:08;;;;;;;7.82;4.53;;;;;;;;;;5335093;26;20009;-76
2024/04/12 12:29:36;;;;;;;10.32;5.35;;;;;;;;;;5315073;26;20019;-77
2024/04/12 12:32:03;;;;;;;6.82;4.47;;;;;;;;;;5304966;26;20070;-77
2024/04/12 12:34:33;;;;;;;9.45;5.45;;;;;;;;;;5329604;26;20037;-76
2024/04/12 12:37:00;;;;;;;8.93;4.70;;;;;;;;;;5330971;26;20006;-77
2024/04/12 12:39:31;;;;;;;10.90;5.15;;;;;;;;;;5321281;26;20024;-76
2024/04/12 12:41:58;;;;;;;8.85;5.18;;;;;;;;;;5301929;26;20083;-77
2024/04/12 12:44:28;;;;;;;9.95;4.85;;;;;;;;;;5285250;26;20041;-76
2024/04/12 12:46:59;;;;;;;10.68;5.47;;;;;;;;;;5338640;26;20013;-77
2024/04/12 12:49:25;;;;;;;10.80;6.65;;;;;;;;;;5285384;26;20502;-78
2024/04/12 12:51:52;;;;;;;10.93;5.65;;;;;;;;;;5336661;26;20005;-79
2024/04/12 12:54:19;;;;;;;7.57;4.60;;;;;;;;;;5340714;26;20016;-78
2024/04/12 12:56:47;;;;;;;10.55;5.35;;;;;;;;;;5340097;26;20009;-79
2024/04/12 12:59:13;;;;;;;9.52;5.13;;;;;;;;;;5331250;26;20075;-79
2024/04/12 13:01:41;;;;;;;8.38;5.15;;;;;;;;;;5336087;26;20020;-79
2024/04/12 13:04:08;;;;;;;8.90;4.43;;;;;;;;;;5324971;26;20021;-79
2024/04/12 13:06:36;;;;;;;8.05;5.28;;;;;;;;;;5333464;26;20074;-78
2024/04/12 13:09:04;;;;;;;7.60;5.32;;;;;;;;;;5283727;26;20016;-79
2024/04/12 13:11:31;;;;;;;13.35;6.45;;;;;;;;;;5334374;26;20219;-79
2024/04/12 13:13:59;;;;;;;7.70;5.15;;;;;;;;;;5328596;26;20001;-79
2024/04/12 13:16:26;;;;;;;9.10;4.70;;;;;;;;;;5320730;26;20009;-78
2024/04/12 13:18:56;;;;;;;9.68;5.35;;;;;;;;;;5305659;26;20000;-79
2024/04/12 13:21:24;;;;;;;12.40;5.60;;;;;;;;;;5275097;26;19997;-75
2024/04/12 13:23:51;;;;;;;9.75;5.60;;;;;;;;;;5308135;26;20013;-75
2024/04/12 13:26:25;;;;;;;11.07;5.05;;;;;;;;;;5336835;26;20035;-77
2024/04/12 13:28:53;;;;;;;6.10;4.55;;;;;;;;;;5301638;26;20086;-75
2024/04/12 13:31:23;;;;;;;13.30;4.97;;;;;;;;;;5316452;26;20005;-75
2024/04/12 13:33:54;;;;;;;12.77;3.90;;;;;;;;;;5322637;26;20459;-76
2024/04/12 13:36:24;;;;;;;9.02;3.67;;;;;;;;;;5324448;26;20082;-76
2024/04/12 13:38:53;;;;;;;10.43;4.32;;;;;;;;;;5326362;26;20009;-75
2024/04/12 13:41:20;;;;;;;9.18;3.30;;;;;;;;;;5326059;26;20017;-75
2024/04/12 13:43:49;;;;;;;7.18;3.10;;;;;;;;;;5319700;26;20010;-75
2024/04/12 13:50:54;;;;;;;6.82;3.47;;;;;;;;;;5315975;26;20005;-75
2024/04/12 13:52:16;;;;;;;6.28;2.90;;;;;;;;;;5315731;26;20492;-75
2024/04/12 13:54:43;;;;;;;7.50;3.72;;;;;;;;;;5309274;26;20079;-76
2024/04/12 13:57:14;;;;;;;10.90;3.38;;;;;;;;;;5335268;26;20002;-78
2024/04/12 13:59:44;;;;;;;9.65;3.00;;;;;;;;;;5298189;26;20359;-78
2024/04/12 14:02:11;;;;;;;6.10;2.50;;;;;;;;;;5323973;26;20018;-78
2024/04/12 14:04:39;;;;;;;6.10;2.47;;;;;;;;;;5326580;26;20096;-78
2024/04/12 14:07:06;;;;;;;6.13;2.70;;;;;;;;;;5313568;26;20360;-78
2024/04/12 14:09:33;;;;;;;4.03;2.30;;;;;;;;;;5327517;26;20017;-78
2024/04/12 14:12:00;;;;;;;5.20;2.40;;;;;;;;;;5322753;26;20084;-78
2024/04/12 14:14:29;;;;;;;8.18;2.35;;;;;;;;;;5302925;26;20005;-78
2024/04/12 14:16:56;;;;;;;4.65;2.65;;;;;;;;;;5305185;26;20040;-78
2024/04/12 14:19:23;;;;;;;6.63;2.15;;;;;;;;;;5336021;26;20015;-78
2024/04/12 14:21:51;;;;;;;5.43;2.22;;;;;;;;;;5332129;26;20017;-78
2024/04/12 14:27:05;;;;;;;4.55;1.77;;;;;;;;;;5328323;26;20005;-78
2024/04/12 14:29:32;;;;;;;6.93;2.40;;;;;;;;;;5310345;26;20009;-77
2024/04/12 14:32:05;;;;;;;10.32;2.25;;;;;;;;;;5292764;26;20005;-78
2024/04/12 14:34:33;;;;;;;6.15;1.70;;;;;;;;;;5310985;26;20005;-76
2024/04/12 14:37:00;;;;;;;6.47;1.55;;;;;;;;;;5309725;26;20006;-76
2024/04/12 14:39:28;;;;;;;2.85;1.50;;;;;;;;;;5298154;26;20016;-76
2024/04/12 14:41:55;;;;;;;5.50;1.65;;;;;;;;;;5333572;26;20001;-75
2024/04/12 14:44:27;;;;;;;4.55;1.95;;;;;;;;;;5329926;26;20019;-76
2024/04/12 14:46:58;;;;;;;4.30;1.38;;;;;;;;;;5305045;26;20005;-77
2024/04/12 14:49:25;;;;;;;5.53;1.92;;;;;;;;;;5330800;26;20009;-76
2024/04/12 14:51:55;;;;;;;3.00;1.30;;;;;;;;;;5309822;26;20080;-76
2024/04/12 14:54:22;;;;;;;3.95;1.85;;;;;;;;;;5326244;26;20024;-76
2024/04/12 14:56:52;;;;;;;2.10;1.23;;;;;;;;;;5329724;26;20005;-77
2024/04/12 14:59:19;;;;;;;3.78;1.48;;;;;;;;;;5324650;26;20388;-77
2024/04/12 15:01:46;;;;;;;5.90;1.90;;;;;;;;;;5323341;26;20363;-76
2024/04/12 15:48:26;;;;;;;6.00;1.83;;;;;;;;;;5334044;26;20017;-76
2024/04/12 15:50:54;;;;;;;5.35;1.85;;;;;;;;;;5289294;26;20006;-76
2024/04/12 15:53:25;;;;;;;4.97;1.70;;;;;;;;;;5321669;26;20355;-76
2024/04/12 16:12:07;;;;;;;3.47;1.40;;;;;;;;;;5333251;26;20001;-74
2024/04/12 16:14:33;;;;;;;2.70;1.60;;;;;;;;;;5304823;26;20005;-74
2024/04/12 16:17:00;;;;;;;4.38;1.48;;;;;;;;;;5314154;26;20005;-73
2024/04/12 16:19:27;;;;;;;4.40;1.35;;;;;;;;;;5309487;26;20005;-73
2024/04/12 16:21:54;;;;;;;3.72;1.38;;;;;;;;;;5325902;26;20002;-74
2024/04/12 16:24:20;;;;;;;2.78;1.00;;;;;;;;;;5319743;26;20005;-76
2024/04/12 16:26:47;;;;;;;6.97;1.45;;;;;;;;;;5317817;26;20005;-74
2024/04/12 16:29:14;;;;;;;2.33;1.10;;;;;;;;;;5303212;26;20755;-75
2024/04/12 16:31:41;;;;;;;5.55;2.20;;;;;;;;;;5332096;26;20016;-75
2024/04/12 16:34:09;;;;;;;2.47;1.63;;;;;;;;;;5298157;26;20005;-75
2024/04/12 16:36:41;;;;;;;3.08;1.00;;;;;;;;;;5329428;26;20001;-75
2024/04/12 16:39:08;;;;;;;3.40;1.45;;;;;;;;;;5327898;26;20005;-75
2024/04/12 16:41:34;;;;;;;6.18;1.75;;;;;;;;;;5302444;26;20040;-76
2024/04/12 16:44:01;;;;;;;6.25;1.20;;;;;;;;;;5333534;26;20024;-75
2024/04/12 16:46:32;;;;;;;4.07;1.20;;;;;;;;;;5307326;26;20005;-76
2024/04/12 16:49:01;;;;;;;4.57;1.27;;;;;;;;;;5326561;26;20087;-75
2024/04/12 16:51:28;;;;;;;6.00;1.10;;;;;;;;;;5304489;26;20004;-78
2024/04/12 16:53:55;;;;;;;3.03;1.35;;;;;;;;;;5332078;26;20063;-76
2024/04/12 16:56:24;;;;;;;1.30;0.93;;;;;;;;;;5334284;26;20077;-75
2024/04/12 16:58:51;;;;;;;9.05;1.40;;;;;;;;;;5331222;26;20008;-76
2024/04/12 17:01:18;;;;;;;8.40;1.20;;;;;;;;;;5328636;26;20013;-77
2024/04/12 17:03:45;;;;;;;4.65;1.17;;;;;;;;;;5323315;26;20013;-77
2024/04/12 17:06:12;;;;;;;3.97;0.90;;;;;;;;;;5330004;26;20027;-76
2024/04/12 17:08:39;;;;;;;2.78;0.80;;;;;;;;;;5304715;26;20455;-75
2024/04/12 17:11:06;;;;;;;2.33;0.85;;;;;;;;;;5330226;26;20041;-76
2024/04/12 17:13:34;;;;;;;3.70;0.98;;;;;;;;;;5301203;26;20162;-76
2024/04/12 17:16:01;;;;;;;2.10;0.90;;;;;;;;;;5337500;26;20006;-75
2024/04/12 17:18:33;;;;;;;2.58;1.38;;;;;;;;;;5334677;26;20016;-77
2024/04/12 17:21:01;;;;;;;2.72;1.10;;;;;;;;;;5302642;26;20084;-76